Temp: 2.3°C   Baro: 1026.8mb
  Wind: 0.9mph   Dir: ESE (123°)
  Rain: 0.0mm (0.0mm/hr)
  Solar: 83W/m2  Hum: 97%

Historic data

Bath Spa Weather Station Historical Data
Daily Summary for September 28, 2022 Units:  English    Metric   Both
Daily Weekly Monthly Yearly Custom
  High: Low: Average:
Temperature: 60.4 °F 42.3 °F 50.2 °F
Dew Point: 48.8 °F 39.6 °F 44.5 °F
Humidity: 91% 61.2% 81%
Wind Speed: 7.4mph 0mph 2mph
Wind Gust: 13mph - -
Wind- - WNW
Pressure: 29.60 in 29.57 in -
Precipitation: 0.00 in    
Historical Graphs
 
 
Tabular Data for September 28, 2022
Time Temperature Dew Point Pressure Wind Wind Speed Wind Gust Humidity Rainfall Rate (Hourly) solar
00:09 47.1 °F 42.6 °F 29.60 in Calm     84% 0.00 in 0 W/m2
00:14 47.1 °F 42.6 °F 29.60 in Calm     84% 0.00 in 0 W/m2
00:19 46.9 °F 42.4 °F 29.59 in Calm     84% 0.00 in 0 W/m2
00:24 46.9 °F 42.4 °F 29.59 in Calm     84% 0.00 in 0 W/m2
00:29 46.8 °F 42.3 °F 29.59 in Calm     84% 0.00 in 0 W/m2
00:34 46.6 °F 42.1 °F 29.59 in Calm     84.2% 0.00 in 0 W/m2
00:39 46.6 °F 42.3 °F 29.59 in Calm     85% 0.00 in 0 W/m2
00:44 46.4 °F 42.1 °F 29.59 in Calm     85% 0.00 in 0 W/m2
00:49 46.2 °F 41.9 °F 29.59 in Calm     85% 0.00 in 0 W/m2
00:54 46.2 °F 41.9 °F 29.59 in NW 0.7 mph 1 mph 85% 0.00 in 0 W/m2
00:59 46 °F 41.7 °F 29.59 in NW 1.8 mph 3 mph 85.2% 0.00 in 0 W/m2
01:04 45.9 °F 41.9 °F 29.59 in NW 1.8 mph 3 mph 86% 0.00 in 0 W/m2
01:09 45.7 °F 41.7 °F 29.59 in NW 1.1 mph 2 mph 86% 0.00 in 0 W/m2
01:14 45.7 °F 41.7 °F 29.59 in NW 2.2 mph 4 mph 86% 0.00 in 0 W/m2
01:19 45.7 °F 41.7 °F 29.59 in NW 1.8 mph 3 mph 86% 0.00 in 0 W/m2
01:24 45.7 °F 41.8 °F 29.59 in NW 1.3 mph 3 mph 86.4% 0.00 in 0 W/m2
01:29 45.5 °F 41.6 °F 29.59 in NW 1.3 mph 2 mph 86.4% 0.00 in 0 W/m2
01:34 45.3 °F 41.7 °F 29.59 in NW 2.5 mph 4 mph 87% 0.00 in 0 W/m2
01:39 45.3 °F 41.7 °F 29.59 in NW 2.1 mph 4 mph 87% 0.00 in 0 W/m2
01:44 45.4 °F 41.8 °F 29.59 in NW 0.9 mph 4 mph 87% 0.00 in 0 W/m2
01:49 45.1 °F 41.5 °F 29.59 in NW 1.7 mph 3 mph 87% 0.00 in 0 W/m2
01:54 44.9 °F 41.3 °F 29.59 in NW 2 mph 4 mph 87% 0.00 in 0 W/m2
01:59 44.6 °F 41 °F 29.59 in NW 0.9 mph 3 mph 87% 0.00 in 0 W/m2
02:04 44.2 °F 40.6 °F 29.59 in NW 1.7 mph 3 mph 87% 0.00 in 0 W/m2
02:09 44.1 °F 40.7 °F 29.59 in NW 1.8 mph 3 mph 87.8% 0.00 in 0 W/m2
02:14 43.9 °F 40.6 °F 29.59 in NW 1.4 mph 3 mph 88% 0.00 in 0 W/m2
02:19 43.7 °F 40.5 °F 29.59 in NW 0.6 mph 2 mph 88% 0.00 in 0 W/m2
02:24 43.7 °F 40.5 °F 29.59 in NW 0.4 mph 2 mph 88% 0.00 in 0 W/m2
02:29 43.4 °F 40.2 °F 29.59 in NW 0.2 mph 1 mph 88% 0.00 in 0 W/m2
02:34 43.3 °F 40.1 °F 29.59 in Calm   1 mph 88% 0.00 in 0 W/m2
02:39 43.3 °F 40.2 °F 29.59 in Calm   1 mph 88.4% 0.00 in 0 W/m2
02:44 43.3 °F 40.2 °F 29.59 in Calm     88.6% 0.00 in 0 W/m2
02:49 43.3 °F 40.3 °F 29.59 in NW 1.6 mph 2 mph 88.8% 0.00 in 0 W/m2
02:54 43.3 °F 40.3 °F 29.59 in NW 0.9 mph 2 mph 89% 0.00 in 0 W/m2
02:59 43.3 °F 40.3 °F 29.59 in NW 0.4 mph 2 mph 89% 0.00 in 0 W/m2
03:04 43.3 °F 40.3 °F 29.58 in NW 0.5 mph 2 mph 89% 0.00 in 0 W/m2
03:09 43.3 °F 40.3 °F 29.58 in Calm   1 mph 89% 0.00 in 0 W/m2
03:14 43.2 °F 40.1 °F 29.58 in Calm     89% 0.00 in 0 W/m2
03:19 43.2 °F 40.1 °F 29.59 in NW 1 mph 3 mph 89% 0.00 in 0 W/m2
03:24 43.2 °F 40.1 °F 29.58 in Calm   2 mph 89% 0.00 in 0 W/m2
03:29 43.2 °F 40.1 °F 29.58 in Calm     89% 0.00 in 0 W/m2
03:34 43.2 °F 40.1 °F 29.58 in Calm     89% 0.00 in 0 W/m2
03:39 43.1 °F 40 °F 29.58 in NW 0.8 mph 2 mph 89% 0.00 in 0 W/m2
03:44 43 °F 39.9 °F 29.58 in NW 0.7 mph 2 mph 89% 0.00 in 0 W/m2
03:49 43 °F 39.9 °F 29.58 in NW 0.4 mph 2 mph 89% 0.00 in 0 W/m2
03:54 42.8 °F 39.9 °F 29.58 in NW 0.8 mph 2 mph 89.6% 0.00 in 0 W/m2
03:59 42.6 °F 39.9 °F 29.58 in NW 1.8 mph 3 mph 90% 0.00 in 0 W/m2
04:04 42.5 °F 39.8 °F 29.58 in NW 1.6 mph 3 mph 90% 0.00 in 0 W/m2
04:09 42.6 °F 39.9 °F 29.58 in NW 2.7 mph 4 mph 90% 0.00 in 0 W/m2
04:14 42.8 °F 40.1 °F 29.58 in NW 2.7 mph 4 mph 90% 0.00 in 0 W/m2
04:19 43.1 °F 40.4 °F 29.58 in NW 2.6 mph 4 mph 90% 0.00 in 0 W/m2
04:24 43.4 °F 40.7 °F 29.59 in NW 2.1 mph 4 mph 90% 0.00 in 0 W/m2
04:28 43.5 °F 40.8 °F 29.58 in NW 0.5 mph 3 mph 90% 0.00 in 0 W/m2
04:34 43.6 °F 40.9 °F 29.59 in NW 0.8 mph 4 mph 90% 0.00 in 0 W/m2
04:39 43.5 °F 40.8 °F 29.59 in Calm     90% 0.00 in 0 W/m2
04:44 43.3 °F 40.6 °F 29.59 in Calm   1 mph 90% 0.00 in 0 W/m2
04:49 43.2 °F 40.5 °F 29.59 in Calm   1 mph 90% 0.00 in 0 W/m2
04:54 43.1 °F 40.4 °F 29.59 in Calm     90% 0.00 in 0 W/m2
04:59 43 °F 40.3 °F 29.59 in Calm   1 mph 90% 0.00 in 0 W/m2
05:04 43 °F 40.3 °F 29.59 in Calm   1 mph 90% 0.00 in 0 W/m2
05:09 43 °F 40.3 °F 29.59 in NW 1.2 mph 2 mph 90% 0.00 in 0 W/m2
05:14 43 °F 40.3 °F 29.59 in Calm   1 mph 90% 0.00 in 0 W/m2
05:19 42.8 °F 40.1 °F 29.59 in Calm     90% 0.00 in 0 W/m2
05:24 42.7 °F 40 °F 29.59 in NW 0.7 mph 2 mph 90% 0.00 in 0 W/m2
05:29 42.6 °F 39.9 °F 29.59 in Calm   2 mph 90% 0.00 in 0 W/m2
05:34 42.6 °F 39.9 °F 29.59 in Calm   1 mph 90% 0.00 in 0 W/m2
05:39 42.6 °F 39.9 °F 29.59 in NW 0.5 mph 2 mph 90% 0.00 in 0 W/m2
05:44 42.8 °F 40.1 °F 29.59 in NW 0.4 mph 2 mph 90% 0.00 in 0 W/m2
05:49 42.8 °F 40.1 °F 29.59 in Calm     90% 0.00 in 0 W/m2
05:54 42.8 °F 40.1 °F 29.59 in Calm     90% 0.00 in 0 W/m2
05:59 42.6 °F 39.9 °F 29.59 in Calm     90% 0.00 in 0 W/m2
06:04 42.6 °F 39.9 °F 29.59 in Calm     90% 0.00 in 0 W/m2
06:09 42.6 °F 39.9 °F 29.59 in Calm     90% 0.00 in 0 W/m2
06:14 42.6 °F 39.9 °F 29.59 in Calm   1 mph 90% 0.00 in 0 W/m2
06:19 42.6 °F 39.9 °F 29.59 in Calm     90% 0.00 in 0 W/m2
06:24 42.4 °F 39.7 °F 29.59 in Calm     90% 0.00 in 0 W/m2
06:29 42.3 °F 39.6 °F 29.59 in Calm     90% 0.00 in 0 W/m2
06:34 42.4 °F 39.8 °F 29.59 in NW 0.2 mph 2 mph 90.6% 0.00 in 0 W/m2
06:39 42.4 °F 39.9 °F 29.59 in Calm     91% 0.00 in 0 W/m2
06:44 42.3 °F 39.7 °F 29.59 in NW 0.2 mph 1 mph 91% 0.00 in 0 W/m2
06:49 42.3 °F 39.7 °F 29.59 in Calm     91% 0.00 in 0 W/m2
06:54 43.4 °F 40.8 °F 29.59 in Calm     91% 0.00 in 0 W/m2
06:59 44.9 °F 42.4 °F 29.59 in Calm     91% 0.00 in 0 W/m2
07:04 45.6 °F 43.1 °F 29.59 in Calm     91% 0.00 in 0 W/m2
07:09 45.8 °F 43.3 °F 29.59 in Calm     91% 0.00 in 5 W/m2
07:14 46.2 °F 43.7 °F 29.59 in Calm     91% 0.00 in 5 W/m2
07:19 46.1 °F 43.6 °F 29.59 in Calm     91% 0.00 in 7 W/m2
07:23 46.2 °F 43.7 °F 29.59 in Calm     91% 0.00 in 9 W/m2
07:29 46.4 °F 43.9 °F 29.59 in Calm     90.8% 0.00 in 11 W/m2
07:34 46.4 °F 43.7 °F 29.59 in Calm     90.2% 0.00 in 14 W/m2
07:39 46.6 °F 43.9 °F 29.59 in Calm     90% 0.00 in 16 W/m2
07:44 46.9 °F 44.2 °F 29.59 in Calm     90% 0.00 in 18 W/m2
07:49 47 °F 44.3 °F 29.59 in Calm     90% 0.00 in 18 W/m2
07:54 46.9 °F 44.2 °F 29.59 in Calm     90% 0.00 in 19 W/m2
07:59 46.7 °F 43.9 °F 29.59 in Calm     89.6% 0.00 in 19 W/m2
08:04 46.6 °F 43.5 °F 29.59 in Calm     89% 0.00 in 19 W/m2
08:09 46.8 °F 44 °F 29.59 in Calm     89.6% 0.00 in 23 W/m2
08:14 46.7 °F 43.7 °F 29.59 in Calm     89.2% 0.00 in 26 W/m2
08:19 47.5 °F 44.8 °F 29.59 in Calm     90% 0.00 in 30 W/m2
08:24 48.6 °F 45.7 °F 29.59 in Calm     90% 0.00 in 35 W/m2
08:29 49.2 °F 46.2 °F 29.59 in Calm     89.6% 0.00 in 35 W/m2
08:34 48.9 °F 45.9 °F 29.60 in Calm     89% 0.00 in 32 W/m2
08:39 49.4 °F 46.3 °F 29.60 in Calm     89% 0.00 in 42 W/m2
08:44 49.5 °F 46.2 °F 29.60 in Calm     88.4% 0.00 in 95 W/m2
08:49 50.2 °F 46.8 °F 29.60 in Calm     88% 0.00 in 120 W/m2
08:54 51.1 °F 47.6 °F 29.60 in Calm     87.8% 0.00 in 132 W/m2
08:59 50.9 °F 47 °F 29.60 in Calm     86.6% 0.00 in 104 W/m2
09:04 51.3 °F 47.3 °F 29.60 in Calm     86% 0.00 in 142 W/m2
09:09 52 °F 47.8 °F 29.60 in Calm     85.8% 0.00 in 113 W/m2
09:14 52 °F 47.7 °F 29.60 in Calm     85% 0.00 in 153 W/m2
09:19 52 °F 47.7 °F 29.60 in Calm     85% 0.00 in 241 W/m2
09:24 51.5 °F 46.6 °F 29.60 in Calm     83.4% 0.00 in 163 W/m2
09:29 51.3 °F 46.2 °F 29.60 in Calm     83% 0.00 in 178 W/m2
09:34 51.4 °F 46.3 °F 29.60 in Calm     83% 0.00 in 251 W/m2
09:39 51.4 °F 46.4 °F 29.60 in Calm     83% 0.00 in 214 W/m2
09:44 51.6 °F 46.5 °F 29.60 in Calm     82.8% 0.00 in 169 W/m2
09:49 51.6 °F 46.2 °F 29.60 in Calm     82% 0.00 in 285 W/m2
09:54 52.7 °F 47.6 °F 29.60 in Calm     82.8% 0.00 in 526 W/m2
09:59 53.9 °F 48.8 °F 29.60 in NW 2.4 mph 5 mph 82.8% 0.00 in 343 W/m2
10:04 53.5 °F 47.7 °F 29.60 in WNW 4 mph 8 mph 80.4% 0.00 in 413 W/m2
10:09 53.6 °F 47.5 °F 29.60 in NW 5.3 mph 9 mph 79.5% 0.00 in 410 W/m2
10:14 54 °F 47.5 °F 29.60 in WNW 4.9 mph 8 mph 78.6% 0.00 in 464 W/m2
10:19 54.1 °F 47.1 °F 29.60 in NW 5.2 mph 11 mph 77.2% 0.00 in 480 W/m2
10:24 54.2 °F 46.9 °F 29.60 in NW 4.8 mph 9 mph 76.2% 0.00 in 415 W/m2
10:29 54.4 °F 46.9 °F 29.60 in NW 4.9 mph 10 mph 75.8% 0.00 in 418 W/m2
10:34 54.5 °F 46.7 °F 29.60 in NNW 6.1 mph 11 mph 75% 0.00 in 445 W/m2
10:39 54.7 °F 46.6 °F 29.60 in NW 4.7 mph 11 mph 74% 0.00 in 461 W/m2
10:44 54.8 °F 46.7 °F 29.60 in WNW 4.6 mph 11 mph 74% 0.00 in 455 W/m2
10:49 55.2 °F 46.9 °F 29.60 in NNW 4 mph 9 mph 73.6% 0.00 in 482 W/m2
10:54 55.4 °F 47 °F 29.59 in NNW 5.4 mph 9 mph 73% 0.00 in 483 W/m2
10:58 55.2 °F 46.6 °F 29.59 in NW 6.8 mph 11 mph 72.8% 0.00 in 499 W/m2
11:04 54.7 °F 46 °F 29.59 in WNW 4.8 mph 10 mph 72.4% 0.00 in 413 W/m2
11:09 54.9 °F 46.4 °F 29.59 in WNW 3.1 mph 9 mph 73% 0.00 in 506 W/m2
11:14 55.3 °F 46.9 °F 29.59 in NNW 4.4 mph 9 mph 73% 0.00 in 589 W/m2
11:19 55.8 °F 47 °F 29.59 in NW 5.4 mph 10 mph 72% 0.00 in 589 W/m2
11:24 55.8 °F 46.7 °F 29.59 in West 5.6 mph 10 mph 71.2% 0.00 in 677 W/m2
11:29 56 °F 47 °F 29.59 in West 3.1 mph 8 mph 71.6% 0.00 in 652 W/m2
11:34 56 °F 47 °F 29.59 in WNW 3.6 mph 7 mph 71.4% 0.00 in 77 W/m2
11:39 55.5 °F 46.7 °F 29.59 in NW 6.2 mph 12 mph 72% 0.00 in 70 W/m2
11:44 55 °F 46.1 °F 29.59 in WNW 4.4 mph 12 mph 71.6% 0.00 in 584 W/m2
11:49 55.6 °F 46.4 °F 29.59 in WNW 4 mph 11 mph 71% 0.00 in 687 W/m2
11:54 56.3 °F 46.6 °F 29.59 in WNW 6.2 mph 13 mph 69.8% 0.00 in 742 W/m2
11:59 56.7 °F 46.6 °F 29.59 in NNW 4.5 mph 9 mph 68.8% 0.00 in 742 W/m2
12:04 56.5 °F 46.1 °F 29.59 in WNW 4.9 mph 9 mph 68.2% 0.00 in 213 W/m2
12:09 56.1 °F 45.7 °F 29.59 in WNW 4 mph 10 mph 68% 0.00 in 156 W/m2
12:14 56.1 °F 45.7 °F 29.59 in WNW 2.8 mph 8 mph 68% 0.00 in 385 W/m2
12:19 56.2 °F 45.9 °F 29.59 in NW 4.8 mph 8 mph 68.2% 0.00 in 779 W/m2
12:24 57 °F 46.5 °F 29.59 in WNW 4.5 mph 10 mph 67.8% 0.00 in 812 W/m2
12:29 57.6 °F 46.8 °F 29.59 in WNW 4.6 mph 9 mph 67% 0.00 in 775 W/m2
12:34 57.7 °F 46.5 °F 29.59 in NNW 7.2 mph 11 mph 66.4% 0.00 in 364 W/m2
12:39 57.2 °F 46 °F 29.59 in NW 4.4 mph 10 mph 66.2% 0.00 in 366 W/m2
12:44 57.3 °F 46.5 °F 29.59 in NNW 2.8 mph 6 mph 67% 0.00 in 422 W/m2
12:49 57.6 °F 46.4 °F 29.59 in NW 4.7 mph 11 mph 66.4% 0.00 in 230 W/m2
12:54 57.5 °F 46.5 °F 29.58 in NW 3.8 mph 6 mph 66.6% 0.00 in 269 W/m2
12:59 57.5 °F 46.3 °F 29.58 in North 4.7 mph 11 mph 66.4% 0.00 in 186 W/m2
13:04 57.2 °F 46 °F 29.58 in NW 3.2 mph 7 mph 66.2% 0.00 in 218 W/m2
13:09 57 °F 46 °F 29.58 in NW 3.4 mph 10 mph 66.2% 0.00 in 283 W/m2
13:14 56.9 °F 45.7 °F 29.58 in WNW 5.4 mph 11 mph 66% 0.00 in 367 W/m2
13:19 56.7 °F 45.5 °F 29.58 in NW 6.3 mph 11 mph 66% 0.00 in 378 W/m2
13:24 57.1 °F 45.9 °F 29.58 in NW 3.8 mph 10 mph 66% 0.00 in 763 W/m2
13:29 57.7 °F 46.1 °F 29.58 in NW 6.6 mph 11 mph 65.4% 0.00 in 708 W/m2
13:34 57.7 °F 45.9 °F 29.58 in WNW 6.2 mph 12 mph 64.8% 0.00 in 724 W/m2
13:39 58.1 °F 46.4 °F 29.58 in WNW 5.5 mph 9 mph 65% 0.00 in 747 W/m2
13:44 58.5 °F 46.5 °F 29.57 in West 4 mph 9 mph 64.2% 0.00 in 752 W/m2
13:49 58.7 °F 46.8 °F 29.57 in WNW 2.5 mph 7 mph 64.4% 0.00 in 735 W/m2
13:54 59.2 °F 46.5 °F 29.57 in WNW 4.2 mph 10 mph 62.8% 0.00 in 786 W/m2
13:59 59.4 °F 46.3 °F 29.57 in WNW 5.9 mph 10 mph 61.6% 0.00 in 770 W/m2
14:04 59.6 °F 46.5 °F 29.57 in West 4.4 mph 10 mph 61.8% 0.00 in 728 W/m2
14:09 60 °F 46.7 °F 29.57 in NW 3.2 mph 10 mph 61.5% 0.00 in 696 W/m2
14:14 60.4 °F 47.1 °F 29.57 in WNW 6.1 mph 9 mph 61.6% 0.00 in 703 W/m2
14:19 60 °F 46.7 °F 29.57 in WNW 4 mph 9 mph 61.6% 0.00 in 714 W/m2
14:24 60.1 °F 46.9 °F 29.57 in WNW 3.4 mph 9 mph 62% 0.00 in 668 W/m2
14:29 59.6 °F 46.4 °F 29.57 in NNW 5.4 mph 10 mph 61.6% 0.00 in 148 W/m2
14:34 59 °F 46 °F 29.57 in NW 4.9 mph 8 mph 62% 0.00 in 163 W/m2
14:39 58.5 °F 45.2 °F 29.57 in NW 4.1 mph 8 mph 61.2% 0.00 in 169 W/m2
14:44 58.2 °F 45.5 °F 29.57 in North 7.4 mph 12 mph 62.6% 0.00 in 172 W/m2
14:49 57.5 °F 46 °F 29.57 in North 6.4 mph 13 mph 65.4% 0.00 in 165 W/m2
14:54 56.8 °F 46 °F 29.57 in NNE 6.6 mph 11 mph 66.8% 0.00 in 127 W/m2
14:59 56.9 °F 46.2 °F 29.57 in North 4.8 mph 11 mph 67.2% 0.00 in 91 W/m2
15:04 56.6 °F 45.9 °F 29.57 in NNE 4 mph 9 mph 67.4% 0.00 in 60 W/m2
15:09 56.5 °F 46 °F 29.57 in NNE 3.2 mph 7 mph 68% 0.00 in 98 W/m2
15:14 56.2 °F 45.9 °F 29.57 in North 3.3 mph 6 mph 68.4% 0.00 in 114 W/m2
15:19 55.9 °F 45.9 °F 29.57 in NW 2.9 mph 5 mph 69% 0.00 in 113 W/m2
15:24 55.9 °F 45.9 °F 29.57 in WNW 3.7 mph 6 mph 69% 0.00 in 121 W/m2
15:29 56.1 °F 46 °F 29.57 in West 5.2 mph 9 mph 69.2% 0.00 in 158 W/m2
15:34 55.6 °F 46.7 °F 29.57 in West 6.3 mph 11 mph 71.5% 0.00 in 167 W/m2
15:39 55 °F 46.6 °F 29.57 in West 4.9 mph 11 mph 73.2% 0.00 in 162 W/m2
15:44 54.6 °F 46.7 °F 29.57 in West 5.8 mph 10 mph 74.6% 0.00 in 155 W/m2
15:49 54.3 °F 46.7 °F 29.57 in WNW 3.4 mph 9 mph 75.6% 0.00 in 155 W/m2
15:54 54.1 °F 46.8 °F 29.57 in West 6 mph 9 mph 76% 0.00 in 162 W/m2
15:59 54 °F 46.8 °F 29.57 in West 3.7 mph 8 mph 76.8% 0.00 in 243 W/m2
16:04 54.2 °F 47.2 °F 29.57 in WNW 1.7 mph 6 mph 77% 0.00 in 394 W/m2
16:09 54.7 °F 47.7 °F 29.57 in West 3 mph 6 mph 77% 0.00 in 179 W/m2
16:14 54.8 °F 47.7 °F 29.57 in West 3.2 mph 6 mph 77% 0.00 in 144 W/m2
16:19 54.7 °F 47.5 °F 29.57 in West 4.4 mph 9 mph 76.6% 0.00 in 146 W/m2
16:24 54.7 °F 47.3 °F 29.57 in WSW 6.2 mph 9 mph 76% 0.00 in 149 W/m2
16:29 54.5 °F 47.1 °F 29.57 in West 3.9 mph 7 mph 76% 0.00 in 142 W/m2
16:34 54.4 °F 47 °F 29.57 in WSW 4.5 mph 8 mph 76% 0.00 in 176 W/m2
16:39 54.5 °F 47.1 °F 29.57 in WSW 4.4 mph 6 mph 76.2% 0.00 in 163 W/m2
16:44 54.6 °F 47.6 °F 29.57 in WSW 3.1 mph 6 mph 77% 0.00 in 125 W/m2
16:49 54.7 °F 47.7 °F 29.57 in West 4.4 mph 7 mph 77% 0.00 in 113 W/m2
16:54 54.7 °F 47.7 °F 29.57 in West 3.4 mph 7 mph 77% 0.00 in 102 W/m2
16:59 54.5 °F 47.7 °F 29.57 in West 2.5 mph 6 mph 77.6% 0.00 in 84 W/m2
17:04 54.5 °F 47.8 °F 29.57 in West 3.3 mph 7 mph 78% 0.00 in 72 W/m2
17:09 54.3 °F 47.7 °F 29.57 in West 3.2 mph 7 mph 78% 0.00 in 107 W/m2
17:14 54.3 °F 47.7 °F 29.57 in West 5.2 mph 10 mph 78% 0.00 in 223 W/m2
17:19 54.9 °F 47.9 °F 29.57 in West 3.5 mph 7 mph 77.2% 0.00 in 218 W/m2
17:24 55.5 °F 48.4 °F 29.57 in West 4.5 mph 7 mph 76.8% 0.00 in 218 W/m2
17:29 55.6 °F 47.9 °F 29.57 in West 5.1 mph 9 mph 75.4% 0.00 in 183 W/m2
17:34 55.2 °F 47.5 °F 29.57 in West 4.4 mph 10 mph 75% 0.00 in 77 W/m2
17:39 55 °F 47.3 °F 29.57 in West 3.9 mph 8 mph 75% 0.00 in 62 W/m2
17:44 54.9 °F 47.1 °F 29.57 in West 4.3 mph 9 mph 75% 0.00 in 33 W/m2
17:49 54.6 °F 47.1 °F 29.57 in WNW 7.3 mph 13 mph 75.8% 0.00 in 26 W/m2
17:54 54.2 °F 47 °F 29.57 in WNW 5.6 mph 12 mph 76.6% 0.00 in 25 W/m2
17:59 54 °F 46.9 °F 29.57 in NW 5.5 mph 11 mph 77% 0.00 in 25 W/m2
18:04 53.6 °F 46.6 °F 29.57 in NW 6.2 mph 12 mph 77% 0.00 in 23 W/m2
18:09 53.3 °F 46.5 °F 29.57 in NNW 5.8 mph 11 mph 77.6% 0.00 in 19 W/m2
18:14 53 °F 46.3 °F 29.57 in WNW 4.2 mph 11 mph 78% 0.00 in 18 W/m2
18:19 52.6 °F 46 °F 29.57 in NW 3.7 mph 11 mph 78.2% 0.00 in 16 W/m2
18:24 52.4 °F 46.1 °F 29.57 in WNW 2.4 mph 7 mph 79% 0.00 in 14 W/m2
18:29 52.3 °F 46 °F 29.58 in WNW 1.8 mph 5 mph 79% 0.00 in 12 W/m2
18:34 52.2 °F 45.9 °F 29.58 in WNW 2 mph 5 mph 79% 0.00 in 9 W/m2
18:39 52 °F 45.7 °F 29.58 in West 2.3 mph 5 mph 79% 0.00 in 5 W/m2
18:44 52 °F 46 °F 29.58 in West 2.5 mph 5 mph 80% 0.00 in 0 W/m2
18:49 51.7 °F 46 °F 29.58 in West 2.5 mph 5 mph 80.8% 0.00 in 0 W/m2
18:54 51.5 °F 46 °F 29.58 in West 2.1 mph 4 mph 81.2% 0.00 in 0 W/m2
18:59 51.4 °F 46.2 °F 29.58 in West 2.4 mph 4 mph 82% 0.00 in 0 W/m2
19:04 51.3 °F 46.1 °F 29.58 in WSW 3.3 mph 5 mph 82.6% 0.00 in 0 W/m2
19:09 51.1 °F 46 °F 29.58 in WSW 1.6 mph 4 mph 83% 0.00 in 0 W/m2
19:14 51.1 °F 46.2 °F 29.58 in WSW 2 mph 4 mph 83.6% 0.00 in 0 W/m2
19:19 51.1 °F 46.4 °F 29.58 in WSW 1.5 mph 3 mph 84% 0.00 in 0 W/m2
19:24 51 °F 46.3 °F 29.58 in WSW 1.8 mph 3 mph 84% 0.00 in 0 W/m2
19:29 50.8 °F 46.4 °F 29.58 in WSW 2.1 mph 3 mph 84.6% 0.00 in 0 W/m2
19:34 50.9 °F 46.6 °F 29.58 in WSW 1.6 mph 4 mph 85% 0.00 in 0 W/m2
19:39 50.7 °F 46.4 °F 29.58 in WSW 1.3 mph 4 mph 85% 0.00 in 0 W/m2
19:43 50.8 °F 46.5 °F 29.58 in WSW 0.7 mph 2 mph 85% 0.00 in 0 W/m2
19:49 50.9 °F 46.6 °F 29.58 in WSW 0.7 mph 2 mph 85% 0.00 in 0 W/m2
19:54 50.9 °F 46.6 °F 29.58 in WSW 1.9 mph 3 mph 85% 0.00 in 0 W/m2
19:59 50.9 °F 46.6 °F 29.58 in WSW 0.8 mph 3 mph 85% 0.00 in 0 W/m2
20:04 50.9 °F 46.6 °F 29.58 in WSW 1.1 mph 2 mph 85% 0.00 in 0 W/m2
20:09 50.9 °F 46.6 °F 29.58 in WSW 0.2 mph 2 mph 85% 0.00 in 0 W/m2
20:14 50.9 °F 46.6 °F 29.58 in WSW 0.8 mph 2 mph 85% 0.00 in 0 W/m2
20:19 50.7 °F 46.4 °F 29.58 in WSW 0.2 mph 2 mph 85% 0.00 in 0 W/m2
20:24 50.7 °F 46.4 °F 29.58 in Calm   2 mph 85% 0.00 in 0 W/m2
20:29 50.7 °F 46.4 °F 29.58 in WSW 0.4 mph 2 mph 85% 0.00 in 0 W/m2
20:34 50.7 °F 46.4 °F 29.58 in WSW 0.5 mph 3 mph 85% 0.00 in 0 W/m2
20:39 50.6 °F 46.3 °F 29.58 in WSW 0.2 mph 2 mph 85% 0.00 in 0 W/m2
20:44 50.7 °F 46.3 °F 29.58 in WSW 0.2 mph 2 mph 85% 0.00 in 0 W/m2
20:49 50.7 °F 46.4 °F 29.58 in WSW 0.7 mph 3 mph 85% 0.00 in 0 W/m2
20:54 50.5 °F 46.2 °F 29.58 in WSW 0.7 mph 2 mph 85% 0.00 in 0 W/m2
20:59 50.4 °F 46 °F 29.59 in WSW 0.5 mph 2 mph 85% 0.00 in 0 W/m2
21:04 50.4 °F 46 °F 29.58 in Calm   2 mph 85% 0.00 in 0 W/m2
21:09 50.4 °F 46 °F 29.59 in Calm   1 mph 85% 0.00 in 0 W/m2
21:14 50.4 °F 46 °F 29.59 in Calm   1 mph 85% 0.00 in 0 W/m2
21:19 50.4 °F 46 °F 29.59 in Calm   1 mph 85% 0.00 in 0 W/m2
21:24 50.4 °F 46 °F 29.59 in WSW 0.2 mph 1 mph 85% 0.00 in 0 W/m2
21:29 50.4 °F 46 °F 29.59 in Calm   1 mph 85% 0.00 in 0 W/m2
21:34 50.2 °F 45.9 °F 29.59 in WSW 0.2 mph 1 mph 85% 0.00 in 0 W/m2
21:39 50.2 °F 45.9 °F 29.59 in WSW 0.2 mph 2 mph 85% 0.00 in 0 W/m2
21:44 50.2 °F 45.9 °F 29.59 in Calm   2 mph 85% 0.00 in 0 W/m2
21:49 50.2 °F 45.9 °F 29.59 in Calm   1 mph 85% 0.00 in 0 W/m2
21:54 50.4 °F 46 °F 29.59 in Calm   1 mph 85% 0.00 in 0 W/m2
21:58 50.4 °F 46 °F 29.59 in Calm   1 mph 85% 0.00 in 0 W/m2
22:04 50.4 °F 46 °F 29.59 in Calm     85% 0.00 in 0 W/m2
22:09 50.4 °F 46 °F 29.59 in Calm     85% 0.00 in 0 W/m2
22:14 50.4 °F 46 °F 29.59 in Calm     85% 0.00 in 0 W/m2
22:19 50.4 °F 46 °F 29.59 in WSW 0.8 mph 2 mph 85% 0.00 in 0 W/m2
22:24 50.4 °F 46 °F 29.59 in WSW 0.2 mph 1 mph 85% 0.00 in 0 W/m2
22:29 50.4 °F 46 °F 29.59 in WSW 0.5 mph 1 mph 85% 0.00 in 0 W/m2
22:34 50.3 °F 45.9 °F 29.59 in WSW 1.1 mph 2 mph 84.8% 0.00 in 0 W/m2
22:39 49.9 °F 45.3 °F 29.59 in WSW 0.4 mph 2 mph 84.2% 0.00 in 0 W/m2
22:44 49.6 °F 45.3 °F 29.59 in Calm   2 mph 85% 0.00 in 0 W/m2
22:49 49.4 °F 45 °F 29.59 in Calm   1 mph 85% 0.00 in 0 W/m2
22:54 49 °F 44.7 °F 29.59 in WSW 0.5 mph 3 mph 85% 0.00 in 0 W/m2
22:59 48.7 °F 44.4 °F 29.59 in Calm   2 mph 85% 0.00 in 0 W/m2
23:04 48.6 °F 44.3 °F 29.59 in Calm     85% 0.00 in 0 W/m2
23:08 48.6 °F 44.2 °F 29.59 in Calm   1 mph 85% 0.00 in 0 W/m2
23:14 48.3 °F 44 °F 29.60 in Calm     85% 0.00 in 0 W/m2
23:19 47.8 °F 43.5 °F 29.59 in WSW 0.2 mph 1 mph 85% 0.00 in 0 W/m2
23:24 47.6 °F 43.7 °F 29.59 in Calm   1 mph 86% 0.00 in 0 W/m2
23:29 47.3 °F 43.3 °F 29.59 in WSW 0.2 mph 1 mph 86% 0.00 in 0 W/m2
23:34 47.1 °F 43.2 °F 29.59 in WSW 0.9 mph 2 mph 86% 0.00 in 0 W/m2
23:39 46.9 °F 42.9 °F 29.60 in WSW 0.2 mph 2 mph 86% 0.00 in 0 W/m2
23:44 46.5 °F 42.5 °F 29.59 in WSW 1.1 mph 2 mph 86% 0.00 in 0 W/m2
23:49 46.3 °F 42.5 °F 29.59 in WSW 0.4 mph 2 mph 86.4% 0.00 in 0 W/m2
23:54 46.2 °F 42.6 °F 29.59 in WSW 0.4 mph 2 mph 87% 0.00 in 0 W/m2
23:59 46.1 °F 42.5 °F 29.59 in WSW 0.2 mph 1 mph 87% 0.00 in 0 W/m2
Bath Spa Weather
Compliments of Weather Underground - 2 mb